sensor_id;sensor_type;location;lat;lon;timestamp;pressure;altitude;pressure_sealevel;temperature
11849;BMP180;5983;49.966;8.052;2022-12-07T00:00:48;100649.00;;;3.70
11849;BMP180;5983;49.966;8.052;2022-12-07T00:03:16;100660.00;;;3.70
11849;BMP180;5983;49.966;8.052;2022-12-07T00:05:43;100650.00;;;3.80
11849;BMP180;5983;49.966;8.052;2022-12-07T00:08:12;100640.00;;;3.90
11849;BMP180;5983;49.966;8.052;2022-12-07T00:10:39;100632.00;;;3.90
11849;BMP180;5983;49.966;8.052;2022-12-07T00:13:06;100639.00;;;3.90
11849;BMP180;5983;49.966;8.052;2022-12-07T00:15:34;100639.00;;;4.00
11849;BMP180;5983;49.966;8.052;2022-12-07T00:25:39;100629.00;;;4.00
11849;BMP180;5983;49.966;8.052;2022-12-07T00:28:06;100627.00;;;4.00
11849;BMP180;5983;49.966;8.052;2022-12-07T00:30:35;100622.00;;;4.10
11849;BMP180;5983;49.966;8.052;2022-12-07T00:33:02;100624.00;;;4.10
11849;BMP180;5983;49.966;8.052;2022-12-07T00:35:29;100622.00;;;4.10
11849;BMP180;5983;49.966;8.052;2022-12-07T00:37:56;100611.00;;;4.20
11849;BMP180;5983;49.966;8.052;2022-12-07T00:40:22;100606.00;;;4.20
11849;BMP180;5983;49.966;8.052;2022-12-07T00:42:51;100595.00;;;4.20
11849;BMP180;5983;49.966;8.052;2022-12-07T00:45:18;100598.00;;;4.30
11849;BMP180;5983;49.966;8.052;2022-12-07T00:47:45;100611.00;;;4.30
11849;BMP180;5983;49.966;8.052;2022-12-07T00:50:11;100625.00;;;4.30
11849;BMP180;5983;49.966;8.052;2022-12-07T00:52:38;100613.00;;;4.30
11849;BMP180;5983;49.966;8.052;2022-12-07T00:55:06;100619.00;;;4.30
11849;BMP180;5983;49.966;8.052;2022-12-07T00:57:33;100623.00;;;4.20
11849;BMP180;5983;49.966;8.052;2022-12-07T01:00:02;100610.00;;;4.10
11849;BMP180;5983;49.966;8.052;2022-12-07T01:02:29;100614.00;;;4.00
11849;BMP180;5983;49.966;8.052;2022-12-07T01:04:56;100607.00;;;4.00
11849;BMP180;5983;49.966;8.052;2022-12-07T01:07:23;100597.00;;;3.90
11849;BMP180;5983;49.966;8.052;2022-12-07T01:09:50;100601.00;;;3.90
11849;BMP180;5983;49.966;8.052;2022-12-07T01:12:17;100594.00;;;3.90
11849;BMP180;5983;49.966;8.052;2022-12-07T01:14:44;100592.00;;;3.90
11849;BMP180;5983;49.966;8.052;2022-12-07T01:17:12;100592.00;;;3.90
11849;BMP180;5983;49.966;8.052;2022-12-07T01:19:39;100587.00;;;3.80
11849;BMP180;5983;49.966;8.052;2022-12-07T01:22:06;100591.00;;;3.80
11849;BMP180;5983;49.966;8.052;2022-12-07T01:24:33;100587.00;;;3.80
11849;BMP180;5983;49.966;8.052;2022-12-07T01:27:00;100579.00;;;3.90
11849;BMP180;5983;49.966;8.052;2022-12-07T01:29:27;100575.00;;;3.90
11849;BMP180;5983;49.966;8.052;2022-12-07T01:31:54;100582.00;;;3.90
11849;BMP180;5983;49.966;8.052;2022-12-07T01:34:22;100579.00;;;3.90
11849;BMP180;5983;49.966;8.052;2022-12-07T01:36:49;100583.00;;;3.90
11849;BMP180;5983;49.966;8.052;2022-12-07T01:39:16;100583.00;;;4.00
11849;BMP180;5983;49.966;8.052;2022-12-07T01:41:43;100591.00;;;4.00
11849;BMP180;5983;49.966;8.052;2022-12-07T01:44:16;100598.00;;;4.00
11849;BMP180;5983;49.966;8.052;2022-12-07T01:46:45;100594.00;;;4.00
11849;BMP180;5983;49.966;8.052;2022-12-07T01:49:21;100598.00;;;4.10
11849;BMP180;5983;49.966;8.052;2022-12-07T01:51:58;100600.00;;;4.10
11849;BMP180;5983;49.966;8.052;2022-12-07T01:54:28;100594.00;;;4.10
11849;BMP180;5983;49.966;8.052;2022-12-07T01:56:57;100578.00;;;4.10
11849;BMP180;5983;49.966;8.052;2022-12-07T01:59:25;100572.00;;;4.20
11849;BMP180;5983;49.966;8.052;2022-12-07T02:01:55;100571.00;;;4.20
11849;BMP180;5983;49.966;8.052;2022-12-07T02:04:23;100572.00;;;4.20
11849;BMP180;5983;49.966;8.052;2022-12-07T02:06:53;100569.00;;;4.30
11849;BMP180;5983;49.966;8.052;2022-12-07T02:09:21;100558.00;;;4.20
11849;BMP180;5983;49.966;8.052;2022-12-07T02:11:48;100560.00;;;4.20
11849;BMP180;5983;49.966;8.052;2022-12-07T02:14:16;100565.00;;;4.20
11849;BMP180;5983;49.966;8.052;2022-12-07T02:16:57;100564.00;;;4.20
11849;BMP180;5983;49.966;8.052;2022-12-07T02:20:21;100567.00;;;4.20
11849;BMP180;5983;49.966;8.052;2022-12-07T02:23:46;100567.00;;;4.20
11849;BMP180;5983;49.966;8.052;2022-12-07T02:26:48;100563.00;;;4.20
11849;BMP180;5983;49.966;8.052;2022-12-07T02:29:22;100569.00;;;4.20
11849;BMP180;5983;49.966;8.052;2022-12-07T02:32:02;100567.00;;;4.30
11849;BMP180;5983;49.966;8.052;2022-12-07T02:34:42;100570.00;;;4.30
11849;BMP180;5983;49.966;8.052;2022-12-07T02:37:21;100570.00;;;4.30
11849;BMP180;5983;49.966;8.052;2022-12-07T02:39:58;100561.00;;;4.30
11849;BMP180;5983;49.966;8.052;2022-12-07T02:42:33;100557.00;;;4.30
11849;BMP180;5983;49.966;8.052;2022-12-07T02:45:05;100558.00;;;4.30
11849;BMP180;5983;49.966;8.052;2022-12-07T02:47:35;100555.00;;;4.30
11849;BMP180;5983;49.966;8.052;2022-12-07T02:50:05;100550.00;;;4.40
11849;BMP180;5983;49.966;8.052;2022-12-07T02:52:32;100549.00;;;4.40
11849;BMP180;5983;49.966;8.052;2022-12-07T02:54:59;100549.00;;;4.40
11849;BMP180;5983;49.966;8.052;2022-12-07T02:57:54;100543.00;;;4.40
11849;BMP180;5983;49.966;8.052;2022-12-07T03:00:25;100539.00;;;4.40
11849;BMP180;5983;49.966;8.052;2022-12-07T03:02:58;100545.00;;;4.40
11849;BMP180;5983;49.966;8.052;2022-12-07T03:05:54;100541.00;;;4.40
11849;BMP180;5983;49.966;8.052;2022-12-07T03:08:32;100538.00;;;4.40
11849;BMP180;5983;49.966;8.052;2022-12-07T03:11:04;100538.00;;;4.40
11849;BMP180;5983;49.966;8.052;2022-12-07T03:13:42;100536.00;;;4.50
11849;BMP180;5983;49.966;8.052;2022-12-07T03:16:16;100537.00;;;4.50
11849;BMP180;5983;49.966;8.052;2022-12-07T03:18:50;100532.00;;;4.50
11849;BMP180;5983;49.966;8.052;2022-12-07T03:21:24;100531.00;;;4.50
11849;BMP180;5983;49.966;8.052;2022-12-07T03:23:56;100533.00;;;4.50
11849;BMP180;5983;49.966;8.052;2022-12-07T03:26:31;100534.00;;;4.50
11849;BMP180;5983;49.966;8.052;2022-12-07T03:29:05;100537.00;;;4.50
11849;BMP180;5983;49.966;8.052;2022-12-07T03:31:40;100539.00;;;4.50
11849;BMP180;5983;49.966;8.052;2022-12-07T03:34:14;100536.00;;;4.50
11849;BMP180;5983;49.966;8.052;2022-12-07T03:36:49;100538.00;;;4.50
11849;BMP180;5983;49.966;8.052;2022-12-07T03:39:26;100535.00;;;4.40
11849;BMP180;5983;49.966;8.052;2022-12-07T03:41:59;100530.00;;;4.40
11849;BMP180;5983;49.966;8.052;2022-12-07T03:44:28;100543.00;;;4.40
11849;BMP180;5983;49.966;8.052;2022-12-07T03:47:04;100519.00;;;4.40
11849;BMP180;5983;49.966;8.052;2022-12-07T03:49:41;100530.00;;;4.40
11849;BMP180;5983;49.966;8.052;2022-12-07T03:52:17;100536.00;;;4.40
11849;BMP180;5983;49.966;8.052;2022-12-07T03:54:56;100526.00;;;4.40
11849;BMP180;5983;49.966;8.052;2022-12-07T03:57:26;100530.00;;;4.40
11849;BMP180;5983;49.966;8.052;2022-12-07T03:59:56;100529.00;;;4.40
11849;BMP180;5983;49.966;8.052;2022-12-07T04:02:27;100532.00;;;4.40
11849;BMP180;5983;49.966;8.052;2022-12-07T04:04:56;100525.00;;;4.40
11849;BMP180;5983;49.966;8.052;2022-12-07T04:07:23;100527.00;;;4.40
11849;BMP180;5983;49.966;8.052;2022-12-07T04:09:50;100518.00;;;4.40
11849;BMP180;5983;49.966;8.052;2022-12-07T04:12:17;100511.00;;;4.40
11849;BMP180;5983;49.966;8.052;2022-12-07T04:14:44;100517.00;;;4.40
11849;BMP180;5983;49.966;8.052;2022-12-07T04:17:11;100520.00;;;4.40
11849;BMP180;5983;49.966;8.052;2022-12-07T04:19:40;100505.00;;;4.40
11849;BMP180;5983;49.966;8.052;2022-12-07T04:22:07;100517.00;;;4.40
11849;BMP180;5983;49.966;8.052;2022-12-07T04:24:34;100506.00;;;4.40
11849;BMP180;5983;49.966;8.052;2022-12-07T04:27:02;100519.00;;;4.40
11849;BMP180;5983;49.966;8.052;2022-12-07T04:29:29;100517.00;;;4.40
11849;BMP180;5983;49.966;8.052;2022-12-07T04:31:56;100525.00;;;4.40
11849;BMP180;5983;49.966;8.052;2022-12-07T04:34:23;100517.00;;;4.40
11849;BMP180;5983;49.966;8.052;2022-12-07T04:36:51;100520.00;;;4.50
11849;BMP180;5983;49.966;8.052;2022-12-07T04:39:22;100517.00;;;4.50
11849;BMP180;5983;49.966;8.052;2022-12-07T04:41:49;100518.00;;;4.50
11849;BMP180;5983;49.966;8.052;2022-12-07T04:44:17;100520.00;;;4.60
11849;BMP180;5983;49.966;8.052;2022-12-07T04:46:45;100517.00;;;4.60
11849;BMP180;5983;49.966;8.052;2022-12-07T04:49:14;100512.00;;;4.60
11849;BMP180;5983;49.966;8.052;2022-12-07T04:51:42;100521.00;;;4.60
11849;BMP180;5983;49.966;8.052;2022-12-07T04:54:11;100510.00;;;4.60
11849;BMP180;5983;49.966;8.052;2022-12-07T04:56:39;100506.00;;;4.60
11849;BMP180;5983;49.966;8.052;2022-12-07T04:59:07;100502.00;;;4.60
11849;BMP180;5983;49.966;8.052;2022-12-07T05:01:35;100517.00;;;4.60
11849;BMP180;5983;49.966;8.052;2022-12-07T05:04:02;100518.00;;;4.60
11849;BMP180;5983;49.966;8.052;2022-12-07T05:06:29;100516.00;;;4.70
11849;BMP180;5983;49.966;8.052;2022-12-07T05:08:56;100513.00;;;4.70
11849;BMP180;5983;49.966;8.052;2022-12-07T05:11:25;100516.00;;;4.70
11849;BMP180;5983;49.966;8.052;2022-12-07T05:14:12;100513.00;;;4.70
11849;BMP180;5983;49.966;8.052;2022-12-07T05:16:40;100516.00;;;4.70
11849;BMP180;5983;49.966;8.052;2022-12-07T05:19:08;100517.00;;;4.70
11849;BMP180;5983;49.966;8.052;2022-12-07T05:21:35;100525.00;;;4.70
11849;BMP180;5983;49.966;8.052;2022-12-07T05:24:04;100523.00;;;4.70
11849;BMP180;5983;49.966;8.052;2022-12-07T05:26:32;100516.00;;;4.70
11849;BMP180;5983;49.966;8.052;2022-12-07T05:29:00;100517.00;;;4.70
11849;BMP180;5983;49.966;8.052;2022-12-07T05:31:27;100519.00;;;4.70
11849;BMP180;5983;49.966;8.052;2022-12-07T05:33:58;100506.00;;;4.70
11849;BMP180;5983;49.966;8.052;2022-12-07T05:36:26;100519.00;;;4.80
11849;BMP180;5983;49.966;8.052;2022-12-07T05:38:55;100517.00;;;4.80
11849;BMP180;5983;49.966;8.052;2022-12-07T05:41:25;100519.00;;;4.80
11849;BMP180;5983;49.966;8.052;2022-12-07T05:44:11;100513.00;;;4.80
11849;BMP180;5983;49.966;8.052;2022-12-07T05:46:38;100524.00;;;4.80
11849;BMP180;5983;49.966;8.052;2022-12-07T05:49:05;100517.00;;;4.80
11849;BMP180;5983;49.966;8.052;2022-12-07T05:51:33;100517.00;;;4.80
11849;BMP180;5983;49.966;8.052;2022-12-07T05:54:00;100509.00;;;4.80
11849;BMP180;5983;49.966;8.052;2022-12-07T05:56:28;100519.00;;;4.90
11849;BMP180;5983;49.966;8.052;2022-12-07T05:58:56;100519.00;;;4.90
11849;BMP180;5983;49.966;8.052;2022-12-07T06:01:44;100524.00;;;4.90
11849;BMP180;5983;49.966;8.052;2022-12-07T06:04:11;100518.00;;;4.90
11849;BMP180;5983;49.966;8.052;2022-12-07T06:06:38;100527.00;;;4.90
11849;BMP180;5983;49.966;8.052;2022-12-07T06:09:05;100523.00;;;4.80
11849;BMP180;5983;49.966;8.052;2022-12-07T06:11:33;100526.00;;;4.80
11849;BMP180;5983;49.966;8.052;2022-12-07T06:14:18;100521.00;;;4.80
11849;BMP180;5983;49.966;8.052;2022-12-07T06:16:47;100519.00;;;4.80
11849;BMP180;5983;49.966;8.052;2022-12-07T06:19:14;100522.00;;;4.80
11849;BMP180;5983;49.966;8.052;2022-12-07T06:21:42;100529.00;;;4.80
11849;BMP180;5983;49.966;8.052;2022-12-07T06:24:11;100525.00;;;4.80
11849;BMP180;5983;49.966;8.052;2022-12-07T06:26:39;100527.00;;;4.70
11849;BMP180;5983;49.966;8.052;2022-12-07T06:29:07;100526.00;;;4.70
11849;BMP180;5983;49.966;8.052;2022-12-07T06:31:36;100530.00;;;4.70
11849;BMP180;5983;49.966;8.052;2022-12-07T06:34:06;100535.00;;;4.60
11849;BMP180;5983;49.966;8.052;2022-12-07T06:36:33;100528.00;;;4.60
11849;BMP180;5983;49.966;8.052;2022-12-07T06:39:01;100524.00;;;4.60
11849;BMP180;5983;49.966;8.052;2022-12-07T06:41:28;100527.00;;;4.50
11849;BMP180;5983;49.966;8.052;2022-12-07T06:43:55;100524.00;;;4.50
11849;BMP180;5983;49.966;8.052;2022-12-07T06:46:23;100531.00;;;4.40
11849;BMP180;5983;49.966;8.052;2022-12-07T06:48:50;100522.00;;;4.40
11849;BMP180;5983;49.966;8.052;2022-12-07T06:51:19;100521.00;;;4.40
11849;BMP180;5983;49.966;8.052;2022-12-07T06:53:46;100529.00;;;4.40
11849;BMP180;5983;49.966;8.052;2022-12-07T06:56:13;100539.00;;;4.40
11849;BMP180;5983;49.966;8.052;2022-12-07T06:58:40;100539.00;;;4.40
11849;BMP180;5983;49.966;8.052;2022-12-07T07:01:10;100534.00;;;4.40
11849;BMP180;5983;49.966;8.052;2022-12-07T07:03:37;100531.00;;;4.30
11849;BMP180;5983;49.966;8.052;2022-12-07T07:06:06;100536.00;;;4.40
11849;BMP180;5983;49.966;8.052;2022-12-07T07:08:34;100534.00;;;4.40
11849;BMP180;5983;49.966;8.052;2022-12-07T07:11:02;100535.00;;;4.40
11849;BMP180;5983;49.966;8.052;2022-12-07T07:13:29;100532.00;;;4.40
11849;BMP180;5983;49.966;8.052;2022-12-07T07:15:56;100536.00;;;4.50
11849;BMP180;5983;49.966;8.052;2022-12-07T07:18:23;100549.00;;;4.50
11849;BMP180;5983;49.966;8.052;2022-12-07T07:20:51;100538.00;;;4.50
11849;BMP180;5983;49.966;8.052;2022-12-07T07:23:18;100549.00;;;4.60
11849;BMP180;5983;49.966;8.052;2022-12-07T07:25:47;100535.00;;;4.50
11849;BMP180;5983;49.966;8.052;2022-12-07T07:28:15;100544.00;;;4.60
11849;BMP180;5983;49.966;8.052;2022-12-07T07:30:42;100538.00;;;4.60
11849;BMP180;5983;49.966;8.052;2022-12-07T07:33:10;100539.00;;;4.60
11849;BMP180;5983;49.966;8.052;2022-12-07T07:35:37;100547.00;;;4.60
11849;BMP180;5983;49.966;8.052;2022-12-07T07:38:05;100555.00;;;4.60
11849;BMP180;5983;49.966;8.052;2022-12-07T07:40:33;100557.00;;;4.70
11849;BMP180;5983;49.966;8.052;2022-12-07T07:43:01;100554.00;;;4.70
11849;BMP180;5983;49.966;8.052;2022-12-07T07:45:28;100555.00;;;4.70
11849;BMP180;5983;49.966;8.052;2022-12-07T07:47:55;100557.00;;;4.70
11849;BMP180;5983;49.966;8.052;2022-12-07T07:50:22;100557.00;;;4.70
11849;BMP180;5983;49.966;8.052;2022-12-07T07:52:51;100560.00;;;4.70
11849;BMP180;5983;49.966;8.052;2022-12-07T07:55:18;100564.00;;;4.70
11849;BMP180;5983;49.966;8.052;2022-12-07T07:57:45;100560.00;;;4.80
11849;BMP180;5983;49.966;8.052;2022-12-07T08:00:16;100559.00;;;4.70
11849;BMP180;5983;49.966;8.052;2022-12-07T08:02:43;100566.00;;;4.70
11849;BMP180;5983;49.966;8.052;2022-12-07T08:05:12;100567.00;;;4.70
11849;BMP180;5983;49.966;8.052;2022-12-07T08:07:40;100559.00;;;4.70
11849;BMP180;5983;49.966;8.052;2022-12-07T08:10:10;100552.00;;;4.70
11849;BMP180;5983;49.966;8.052;2022-12-07T08:12:38;100559.00;;;4.70
11849;BMP180;5983;49.966;8.052;2022-12-07T08:15:29;100553.00;;;4.70
11849;BMP180;5983;49.966;8.052;2022-12-07T08:17:56;100557.00;;;4.70
11849;BMP180;5983;49.966;8.052;2022-12-07T08:20:23;100553.00;;;4.80
11849;BMP180;5983;49.966;8.052;2022-12-07T08:22:50;100553.00;;;5.00
11849;BMP180;5983;49.966;8.052;2022-12-07T08:25:17;100555.00;;;5.20
11849;BMP180;5983;49.966;8.052;2022-12-07T08:27:44;100548.00;;;5.30
11849;BMP180;5983;49.966;8.052;2022-12-07T08:30:12;100558.00;;;5.50
11849;BMP180;5983;49.966;8.052;2022-12-07T08:32:40;100557.00;;;5.60
11849;BMP180;5983;49.966;8.052;2022-12-07T08:35:08;100569.00;;;5.70
11849;BMP180;5983;49.966;8.052;2022-12-07T08:37:36;100562.00;;;5.60
11849;BMP180;5983;49.966;8.052;2022-12-07T08:40:06;100572.00;;;5.60
11849;BMP180;5983;49.966;8.052;2022-12-07T08:42:34;100575.00;;;5.70
11849;BMP180;5983;49.966;8.052;2022-12-07T08:45:08;100570.00;;;5.70
11849;BMP180;5983;49.966;8.052;2022-12-07T08:47:37;100582.00;;;6.00
11849;BMP180;5983;49.966;8.052;2022-12-07T08:50:09;100577.00;;;6.50
11849;BMP180;5983;49.966;8.052;2022-12-07T08:52:39;100581.00;;;7.30
11849;BMP180;5983;49.966;8.052;2022-12-07T08:55:10;100587.00;;;8.50
11849;BMP180;5983;49.966;8.052;2022-12-07T08:57:38;100591.00;;;9.10
11849;BMP180;5983;49.966;8.052;2022-12-07T09:00:07;100598.00;;;9.10
11849;BMP180;5983;49.966;8.052;2022-12-07T09:02:35;100593.00;;;10.30
11849;BMP180;5983;49.966;8.052;2022-12-07T09:05:03;100591.00;;;11.60
11849;BMP180;5983;49.966;8.052;2022-12-07T09:07:33;100592.00;;;11.70
11849;BMP180;5983;49.966;8.052;2022-12-07T09:10:00;100595.00;;;11.60
11849;BMP180;5983;49.966;8.052;2022-12-07T09:12:27;100598.00;;;11.60
11849;BMP180;5983;49.966;8.052;2022-12-07T09:14:55;100596.00;;;11.00
11849;BMP180;5983;49.966;8.052;2022-12-07T09:17:22;100593.00;;;10.40
11849;BMP180;5983;49.966;8.052;2022-12-07T09:19:50;100590.00;;;9.80
11849;BMP180;5983;49.966;8.052;2022-12-07T09:22:16;100595.00;;;9.20
11849;BMP180;5983;49.966;8.052;2022-12-07T09:24:45;100597.00;;;8.70
11849;BMP180;5983;49.966;8.052;2022-12-07T09:27:12;100598.00;;;8.30
11849;BMP180;5983;49.966;8.052;2022-12-07T09:29:39;100599.00;;;8.00
11849;BMP180;5983;49.966;8.052;2022-12-07T09:32:06;100602.00;;;7.70
11849;BMP180;5983;49.966;8.052;2022-12-07T09:34:33;100597.00;;;7.50
11849;BMP180;5983;49.966;8.052;2022-12-07T09:37:01;100589.00;;;7.50
11849;BMP180;5983;49.966;8.052;2022-12-07T09:39:29;100590.00;;;7.50
11849;BMP180;5983;49.966;8.052;2022-12-07T09:41:59;100599.00;;;7.60
11849;BMP180;5983;49.966;8.052;2022-12-07T09:44:29;100601.00;;;7.60
11849;BMP180;5983;49.966;8.052;2022-12-07T09:46:56;100590.00;;;7.60
11849;BMP180;5983;49.966;8.052;2022-12-07T09:49:28;100594.00;;;8.00
11849;BMP180;5983;49.966;8.052;2022-12-07T09:52:02;100606.00;;;8.00
11849;BMP180;5983;49.966;8.052;2022-12-07T09:54:34;100600.00;;;7.80
11849;BMP180;5983;49.966;8.052;2022-12-07T09:57:03;100598.00;;;7.60
11849;BMP180;5983;49.966;8.052;2022-12-07T09:59:30;100586.00;;;7.50
11849;BMP180;5983;49.966;8.052;2022-12-07T10:02:24;100589.00;;;7.50
11849;BMP180;5983;49.966;8.052;2022-12-07T10:04:51;100583.00;;;7.80
11849;BMP180;5983;49.966;8.052;2022-12-07T10:07:18;100582.00;;;8.20
11849;BMP180;5983;49.966;8.052;2022-12-07T10:09:45;100579.00;;;10.00
11849;BMP180;5983;49.966;8.052;2022-12-07T10:12:14;100586.00;;;12.60
11849;BMP180;5983;49.966;8.052;2022-12-07T10:14:55;100586.00;;;15.70
11849;BMP180;5983;49.966;8.052;2022-12-07T10:17:33;100587.00;;;18.00
11849;BMP180;5983;49.966;8.052;2022-12-07T10:20:21;100580.00;;;19.60
11849;BMP180;5983;49.966;8.052;2022-12-07T10:22:58;100583.00;;;21.20
11849;BMP180;5983;49.966;8.052;2022-12-07T10:25:28;100583.00;;;22.20
11849;BMP180;5983;49.966;8.052;2022-12-07T10:28:01;100580.00;;;22.80
11849;BMP180;5983;49.966;8.052;2022-12-07T10:30:30;100582.00;;;22.50
11849;BMP180;5983;49.966;8.052;2022-12-07T10:32:58;100580.00;;;22.50
11849;BMP180;5983;49.966;8.052;2022-12-07T10:35:27;100581.00;;;21.90
11849;BMP180;5983;49.966;8.052;2022-12-07T10:37:57;100571.00;;;20.90
11849;BMP180;5983;49.966;8.052;2022-12-07T10:40:31;100580.00;;;19.70
11849;BMP180;5983;49.966;8.052;2022-12-07T10:43:18;100569.00;;;17.70
11849;BMP180;5983;49.966;8.052;2022-12-07T10:49:10;100564.00;;;15.10
11849;BMP180;5983;49.966;8.052;2022-12-07T10:51:46;100560.00;;;14.90
11849;BMP180;5983;49.966;8.052;2022-12-07T10:54:26;100563.00;;;14.60
11849;BMP180;5983;49.966;8.052;2022-12-07T10:57:29;100562.00;;;14.90
11849;BMP180;5983;49.966;8.052;2022-12-07T11:00:14;100563.00;;;16.90
11849;BMP180;5983;49.966;8.052;2022-12-07T11:03:01;100567.00;;;17.50
11849;BMP180;5983;49.966;8.052;2022-12-07T11:05:42;100554.00;;;16.30
11849;BMP180;5983;49.966;8.052;2022-12-07T11:08:21;100566.00;;;16.90
11849;BMP180;5983;49.966;8.052;2022-12-07T11:10:55;100559.00;;;18.20
11849;BMP180;5983;49.966;8.052;2022-12-07T11:13:37;100550.00;;;18.60
11849;BMP180;5983;49.966;8.052;2022-12-07T11:16:23;100551.00;;;17.40
11849;BMP180;5983;49.966;8.052;2022-12-07T11:19:14;100548.00;;;16.00
11849;BMP180;5983;49.966;8.052;2022-12-07T11:21:55;100539.00;;;14.90
11849;BMP180;5983;49.966;8.052;2022-12-07T11:24:32;100537.00;;;14.00
11849;BMP180;5983;49.966;8.052;2022-12-07T11:27:20;100534.00;;;13.40
11849;BMP180;5983;49.966;8.052;2022-12-07T11:30:08;100542.00;;;13.10
11849;BMP180;5983;49.966;8.052;2022-12-07T11:33:07;100533.00;;;12.90
11849;BMP180;5983;49.966;8.052;2022-12-07T11:35:54;100533.00;;;12.40
11849;BMP180;5983;49.966;8.052;2022-12-07T11:38:42;100528.00;;;11.90
11849;BMP180;5983;49.966;8.052;2022-12-07T11:41:10;100522.00;;;11.60
11849;BMP180;5983;49.966;8.052;2022-12-07T11:43:53;100521.00;;;11.30
11849;BMP180;5983;49.966;8.052;2022-12-07T11:46:27;100515.00;;;11.00
11849;BMP180;5983;49.966;8.052;2022-12-07T11:49:04;100514.00;;;10.50
11849;BMP180;5983;49.966;8.052;2022-12-07T11:51:38;100509.00;;;10.10
11849;BMP180;5983;49.966;8.052;2022-12-07T11:54:14;100508.00;;;9.90
11849;BMP180;5983;49.966;8.052;2022-12-07T11:56:45;100502.00;;;9.80
11849;BMP180;5983;49.966;8.052;2022-12-07T11:59:21;100491.00;;;9.80
11849;BMP180;5983;49.966;8.052;2022-12-07T12:01:56;100486.00;;;9.70
11849;BMP180;5983;49.966;8.052;2022-12-07T12:04:42;100493.00;;;9.70
11849;BMP180;5983;49.966;8.052;2022-12-07T12:07:20;100495.00;;;9.90
11849;BMP180;5983;49.966;8.052;2022-12-07T12:09:53;100494.00;;;9.80
11849;BMP180;5983;49.966;8.052;2022-12-07T12:12:53;100500.00;;;9.60
11849;BMP180;5983;49.966;8.052;2022-12-07T12:15:40;100485.00;;;9.40
11849;BMP180;5983;49.966;8.052;2022-12-07T12:18:34;100482.00;;;9.20
11849;BMP180;5983;49.966;8.052;2022-12-07T12:21:09;100481.00;;;9.00
11849;BMP180;5983;49.966;8.052;2022-12-07T12:23:43;100481.00;;;8.90
11849;BMP180;5983;49.966;8.052;2022-12-07T12:26:18;100476.00;;;8.90
11849;BMP180;5983;49.966;8.052;2022-12-07T12:28:54;100475.00;;;8.80
11849;BMP180;5983;49.966;8.052;2022-12-07T12:31:35;100475.00;;;8.80
11849;BMP180;5983;49.966;8.052;2022-12-07T12:34:34;100467.00;;;8.90
11849;BMP180;5983;49.966;8.052;2022-12-07T12:37:41;100463.00;;;8.90
11849;BMP180;5983;49.966;8.052;2022-12-07T12:40:41;100465.00;;;9.00
11849;BMP180;5983;49.966;8.052;2022-12-07T12:43:46;100463.00;;;9.10
11849;BMP180;5983;49.966;8.052;2022-12-07T12:46:51;100450.00;;;9.20
11849;BMP180;5983;49.966;8.052;2022-12-07T12:49:38;100452.00;;;9.10
11849;BMP180;5983;49.966;8.052;2022-12-07T12:53:02;100446.00;;;8.90
11849;BMP180;5983;49.966;8.052;2022-12-07T12:55:54;100441.00;;;8.60
11849;BMP180;5983;49.966;8.052;2022-12-07T12:58:47;100434.00;;;8.40
11849;BMP180;5983;49.966;8.052;2022-12-07T13:01:44;100435.00;;;8.20
11849;BMP180;5983;49.966;8.052;2022-12-07T13:04:49;100432.00;;;8.30
11849;BMP180;5983;49.966;8.052;2022-12-07T13:07:57;100438.00;;;9.20
11849;BMP180;5983;49.966;8.052;2022-12-07T13:10:43;100445.00;;;11.00
11849;BMP180;5983;49.966;8.052;2022-12-07T13:13:38;100443.00;;;12.90
11849;BMP180;5983;49.966;8.052;2022-12-07T13:16:51;100440.00;;;14.40
11849;BMP180;5983;49.966;8.052;2022-12-07T13:19:58;100435.00;;;14.00
11849;BMP180;5983;49.966;8.052;2022-12-07T13:22:43;100431.00;;;12.90
11849;BMP180;5983;49.966;8.052;2022-12-07T13:25:26;100430.00;;;12.20
11849;BMP180;5983;49.966;8.052;2022-12-07T13:28:02;100431.00;;;11.40
11849;BMP180;5983;49.966;8.052;2022-12-07T13:30:46;100423.00;;;10.70
11849;BMP180;5983;49.966;8.052;2022-12-07T13:33:17;100427.00;;;10.20
11849;BMP180;5983;49.966;8.052;2022-12-07T13:35:44;100424.00;;;9.80
11849;BMP180;5983;49.966;8.052;2022-12-07T13:38:27;100423.00;;;9.40
11849;BMP180;5983;49.966;8.052;2022-12-07T13:41:20;100413.00;;;9.10
11849;BMP180;5983;49.966;8.052;2022-12-07T13:43:54;100419.00;;;8.90
11849;BMP180;5983;49.966;8.052;2022-12-07T13:46:40;100420.00;;;8.70
11849;BMP180;5983;49.966;8.052;2022-12-07T13:49:22;100418.00;;;8.50
11849;BMP180;5983;49.966;8.052;2022-12-07T13:51:50;100417.00;;;8.40
11849;BMP180;5983;49.966;8.052;2022-12-07T13:54:18;100417.00;;;8.40
11849;BMP180;5983;49.966;8.052;2022-12-07T13:56:50;100413.00;;;8.40
11849;BMP180;5983;49.966;8.052;2022-12-07T13:59:22;100409.00;;;8.30
11849;BMP180;5983;49.966;8.052;2022-12-07T14:01:52;100414.00;;;8.30
11849;BMP180;5983;49.966;8.052;2022-12-07T14:04:33;100412.00;;;8.20
11849;BMP180;5983;49.966;8.052;2022-12-07T14:07:19;100421.00;;;8.10
11849;BMP180;5983;49.966;8.052;2022-12-07T14:09:58;100416.00;;;8.00
11849;BMP180;5983;49.966;8.052;2022-12-07T14:12:27;100409.00;;;8.00
11849;BMP180;5983;49.966;8.052;2022-12-07T14:14:57;100410.00;;;7.90
11849;BMP180;5983;49.966;8.052;2022-12-07T14:17:26;100410.00;;;8.00
11849;BMP180;5983;49.966;8.052;2022-12-07T14:19:55;100406.00;;;8.00
11849;BMP180;5983;49.966;8.052;2022-12-07T14:22:32;100416.00;;;8.10
11849;BMP180;5983;49.966;8.052;2022-12-07T14:25:16;100406.00;;;8.00
11849;BMP180;5983;49.966;8.052;2022-12-07T14:27:56;100406.00;;;8.00
11849;BMP180;5983;49.966;8.052;2022-12-07T14:30:28;100410.00;;;8.00
11849;BMP180;5983;49.966;8.052;2022-12-07T14:32:59;100404.00;;;8.00
11849;BMP180;5983;49.966;8.052;2022-12-07T14:35:27;100402.00;;;8.00
11849;BMP180;5983;49.966;8.052;2022-12-07T14:37:55;100403.00;;;7.90
11849;BMP180;5983;49.966;8.052;2022-12-07T14:40:24;100401.00;;;7.80
11849;BMP180;5983;49.966;8.052;2022-12-07T14:42:55;100397.00;;;7.80
11849;BMP180;5983;49.966;8.052;2022-12-07T14:45:25;100402.00;;;7.70
11849;BMP180;5983;49.966;8.052;2022-12-07T14:47:52;100401.00;;;7.60
11849;BMP180;5983;49.966;8.052;2022-12-07T14:50:20;100404.00;;;7.50
11849;BMP180;5983;49.966;8.052;2022-12-07T14:52:53;100399.00;;;7.50
11849;BMP180;5983;49.966;8.052;2022-12-07T14:55:24;100397.00;;;7.40
11849;BMP180;5983;49.966;8.052;2022-12-07T14:57:52;100401.00;;;7.30
11849;BMP180;5983;49.966;8.052;2022-12-07T15:00:21;100404.00;;;7.30
11849;BMP180;5983;49.966;8.052;2022-12-07T15:02:51;100397.00;;;7.20
11849;BMP180;5983;49.966;8.052;2022-12-07T15:05:19;100402.00;;;7.20